Date,TemperatureHighF,TemperatureAvgF,TemperatureLowF,DewpointHighF,DewpointAvgF,DewpointLowF,HumidityHigh,HumidityAvg,HumidityLow,PressureMaxIn,PressureMinIn,WindSpeedMaxMPH,WindSpeedAvgMPH,GustSpeedMaxMPH,PrecipitationSumIn
2014-1-1,10.8,7.9,3.4,7.2,4.4,-2.9,92,85,73,30.22,29.97,14,8,20,0.00
2014-1-2,18.7,5.6,-0.9,0.6,-2.9,-6.3,89,69,40,30.29,30.19,10,3,11,0.00
2014-1-3,37.0,19.2,-0.9,27.4,13.3,-5.5,92,78,65,30.22,29.44,22,8,24,0.08
2014-1-4,36.3,20.9,9.7,33.9,16.0,4.6,97,81,69,30.05,29.47,26,9,26,0.01
2014-1-5,15.3,3.5,-9.0,4.2,-8.3,-21.3,80,58,41,30.36,30.05,21,12,29,0.98
2014-1-6,8.4,-3.7,-10.8,-8.4,-15.1,-21.5,75,57,43,30.34,30.11,19,7,25,0.01
2014-1-7,36.3,14.1,-3.8,15.5,4.2,-9.6,82,66,41,30.12,29.88,10,3,11,0.00
2014-1-8,27.7,18.2,11.5,15.1,10.4,5.2,93,72,53,30.22,30.07,8,4,9,0.00
2014-1-9,25.5,16.7,7.3,24.8,12.7,3.1,99,84,65,30.20,29.77,9,4,13,0.00
2014-1-10,33.3,28.5,24.6,33.0,28.2,24.4,99,99,99,29.77,29.47,9,3,11,0.00
2014-1-11,31.5,31.4,31.3,29.4,29.3,29.2,92,92,92,29.59,29.58,4,3,5,0.00
2014-1-12,57.4,41.5,30.4,40.2,34.2,29.1,99,77,46,29.58,29.28,14,4,14,0.01
2014-1-13,50.2,40.1,32.2,38.4,30.2,26.0,86,69,42,29.70,29.48,18,7,21,0.00
2014-1-14,46.8,33.8,19.4,38.0,21.0,9.4,77,60,37,30.06,29.50,36,12,37,4.25
2014-1-15,18.7,16.6,14.9,9.3,8.8,8.1,74,71,66,30.07,30.05,12,8,18,0.00
2014-1-16,44.2,26.8,15.1,33.5,15.0,5.7,85,62,43,29.90,29.55,34,16,40,5.82
2014-1-17,38.7,22.2,10.9,13.5,-0.0,-6.6,67,40,17,30.00,29.68,22,7,24,0.07
2014-1-18,42.8,31.5,19.0,35.6,22.6,13.6,92,70,54,29.92,29.47,36,10,42,2.39
2014-1-19,69.3,43.3,17.6,34.3,26.6,16.3,99,58,26,29.87,29.50,22,7,23,0.00
2014-1-20,50.5,33.2,4.5,34.5,22.8,-4.9,91,66,45,30.28,29.67,26,10,36,1.29
2014-1-21,23.5,9.0,-2.7,7.2,-6.6,-13.4,63,49,36,30.35,29.88,17,6,21,0.00
2014-1-22,27.1,18.8,-0.6,20.5,8.6,-11.7,86,64,50,30.42,29.88,21,9,27,0.13
2014-1-23,21.2,5.6,-4.7,-2.7,-8.6,-12.7,71,52,32,30.65,30.30,12,6,16,0.00
2014-1-24,52.2,32.1,8.1,41.6,16.7,-6.6,70,53,39,30.29,29.52,24,10,33,0.14
2014-1-25,46.2,36.3,28.9,37.3,24.8,12.7,99,65,33,29.91,29.41,22,8,28,0.00
2014-1-26,53.2,38.3,6.3,36.6,22.7,-14.2,80,54,23,30.13,29.36,31,13,41,5.29
2014-1-27,16.9,5.8,-0.8,-9.5,-11.7,-14.0,58,44,27,30.32,30.13,18,7,23,0.01
2014-1-28,24.3,8.6,-4.4,-2.5,-6.8,-11.3,81,52,27,30.30,30.06,16,4,19,0.00
2014-1-29,47.5,24.5,2.8,17.5,7.2,-6.8,80,51,29,30.07,29.46,21,7,23,0.00
2014-1-30,41.4,32.2,16.7,25.8,14.4,5.3,73,48,34,29.91,29.29,27,11,27,0.20
2014-1-31,32.2,20.2,13.6,18.2,6.7,0.8,95,57,33,30.01,29.80,11,4,13,0.00
2014-2-1,33.4,21.4,11.7,33.2,15.9,5.5,99,80,54,30.13,29.74,14,5,17,0.00
2014-2-2,32.5,14.1,0.5,14.3,6.2,-1.9,91,72,44,30.22,30.07,12,3,12,0.00
2014-2-3,31.1,18.5,5.2,20.7,11.4,3.2,94,75,57,30.10,30.02,12,4,13,0.00
2014-2-4,23.5,16.8,3.6,23.3,16.5,2.7,99,98,95,30.21,30.04,23,8,30,0.07
2014-2-5,16.7,5.9,0.7,3.4,-1.0,-6.1,95,74,45,30.46,30.21,26,10,27,0.20
2014-2-6,15.3,3.3,-9.9,-0.8,-6.3,-14.7,80,64,45,30.45,30.22,11,5,14,0.00
2014-2-7,19.9,8.9,-1.3,7.5,1.0,-5.8,84,70,45,30.22,29.99,14,5,19,0.00
2014-2-8,32.9,19.8,11.1,21.2,15.7,7.6,99,85,59,30.04,29.84,11,6,13,0.00
2014-2-9,19.8,12.6,5.5,17.6,5.3,-1.4,91,73,56,30.26,30.05,14,5,17,0.00
2014-2-10,23.0,6.8,-4.0,3.6,-2.8,-7.5,87,65,37,30.34,30.25,10,2,11,0.00
2014-2-11,18.9,10.9,0.7,10.9,3.8,-5.8,81,73,62,30.29,29.93,14,5,19,0.00
2014-2-12,18.9,18.0,17.2,12.0,9.6,8.1,74,69,65,29.94,29.88,14,10,15,0.00
2014-2-13,57.9,38.7,25.3,36.7,29.9,24.4,99,74,45,29.65,29.54,11,7,11,0.00
2014-2-14,34.2,25.1,19.6,21.8,17.3,12.6,95,73,46,29.91,29.51,15,7,15,0.00
2014-2-15,57.2,32.5,17.6,39.2,24.8,11.5,92,75,39,29.90,29.62,23,7,26,0.05
2014-2-16,35.1,28.7,23.0,30.4,26.6,21.7,97,92,82,30.01,29.70,16,5,16,0.00
2014-2-17,58.5,40.0,28.2,38.3,29.2,24.1,99,70,32,29.76,29.61,27,6,27,0.20
2014-2-18,68.7,48.0,32.4,36.1,31.1,25.8,81,56,28,29.77,29.45,23,8,33,0.07
2014-2-19,51.1,39.7,26.1,38.0,31.9,25.3,99,76,48,29.79,29.43,11,3,14,0.00
2014-2-20,42.3,35.8,26.2,40.4,31.8,17.5,99,86,66,29.59,29.28,26,10,34,1.10
2014-2-21,51.6,34.9,23.2,36.9,25.7,16.8,94,70,44,29.72,29.59,17,5,19,0.00
2014-2-22,46.6,33.8,27.7,31.6,25.0,17.8,99,72,42,30.03,29.71,14,5,15,0.00
2014-2-23,38.3,26.7,20.7,18.2,12.3,7.0,76,55,35,30.19,30.02,11,4,14,0.00
2014-2-24,26.4,23.7,20.8,20.9,17.2,12.3,98,77,58,30.19,30.04,6,3,8,0.00
2014-2-25,20.8,13.8,7.9,20.6,5.8,-3.4,99,71,53,30.31,30.13,17,8,21,0.00
2014-2-26,38.5,19.7,1.4,18.8,7.7,-3.4,83,60,43,30.31,29.73,25,8,27,0.30
2014-2-27,24.8,14.6,4.6,10.8,-3.2,-12.1,70,47,23,30.04,29.73,14,6,23,0.00
2014-2-28,48.9,25.3,14.5,24.6,13.3,1.1,99,62,36,29.97,29.62,17,7,19,0.02
2014-3-1,20.1,7.8,-0.2,16.2,1.6,-5.5,86,75,65,30.34,29.97,17,9,21,0.00
2014-3-2,9.5,0.5,-3.6,-5.8,-10.9,-13.6,75,58,41,30.43,30.32,16,8,17,0.00
2014-3-3,18.9,8.6,-4.5,5.8,-3.5,-12.4,73,58,35,30.40,30.00,19,6,19,0.00
2014-3-4,39.6,24.5,10.8,23.4,14.3,5.2,82,66,41,30.00,29.79,9,4,12,0.00
2014-3-5,39.7,26.9,20.7,23.2,20.0,16.0,91,76,50,30.13,29.91,11,6,14,0.00
2014-3-6,42.4,31.0,24.3,36.8,29.0,22.7,99,92,75,30.12,29.67,16,6,18,0.00
2014-3-7,47.1,34.9,26.2,41.6,31.9,22.8,99,89,73,30.01,29.62,17,7,20,0.00
2014-3-8,46.0,30.4,18.9,24.6,20.5,16.6,92,69,41,30.17,30.01,15,5,15,0.00
2014-3-9,73.4,47.2,23.4,41.5,30.9,20.1,91,58,31,30.10,29.65,28,8,33,0.12
2014-3-10,83.7,59.2,41.4,49.9,39.8,32.0,71,51,30,29.65,29.44,7,2,12,0.00
2014-3-11,53.1,45.1,34.5,42.1,38.4,34.2,99,78,64,29.89,29.32,30,10,31,3.98
2014-3-12,58.8,40.7,29.1,37.5,31.1,26.4,99,72,37,30.02,29.88,19,6,27,0.00
2014-3-13,36.3,34.4,32.7,28.8,27.4,25.7,77,75,73,29.88,29.86,4,1,4,0.00
2014-3-21,69.3,47.5,28.8,35.5,31.8,27.3,94,60,28,29.86,29.65,8,2,8,0.00
2014-3-22,61.2,44.0,28.4,38.6,32.1,22.4,88,65,39,30.13,29.61,18,10,18,0.09
2014-3-23,35.6,26.5,17.1,17.7,10.7,6.7,77,53,34,30.36,30.14,13,6,13,0.00
2014-3-24,46.8,35.3,28.2,26.6,15.2,10.9,61,44,31,30.33,30.02,12,4,12,0.00
2014-3-25,44.4,33.3,24.1,23.8,13.5,4.1,86,48,21,30.22,30.02,9,6,9,0.00
2014-3-26,65.1,41.7,25.0,43.6,27.6,7.0,99,60,38,29.99,29.42,31,11,31,8.81
2014-3-27,54.7,41.2,33.6,54.4,40.8,33.4,99,99,94,29.67,29.13,27,10,39,9.21
2014-3-28,43.5,35.0,27.9,35.8,32.1,27.6,99,89,71,30.07,29.67,10,5,13,0.00
2014-3-29,60.8,42.0,25.2,37.0,32.2,24.9,99,73,40,30.14,29.90,12,4,14,0.00
2014-3-30,78.3,58.9,41.4,46.8,40.6,34.4,82,54,33,29.90,29.49,25,9,29,0.17
2014-3-31,75.7,53.8,28.4,51.9,37.3,15.8,66,54,34,29.78,29.25,40,15,40,7.61
2014-4-1,49.5,35.4,24.3,25.8,20.8,16.1,75,56,38,29.95,29.77,24,8,31,0.11
2014-4-2,46.0,40.0,33.8,42.9,33.2,23.0,99,78,56,29.90,29.62,17,8,17,0.00
2014-4-3,42.3,39.6,33.4,42.0,39.4,33.2,99,99,99,29.62,29.50,17,7,18,0.14
2014-4-4,46.6,37.6,31.8,36.5,33.7,31.0,99,87,63,29.98,29.62,24,9,27,0.37
2014-4-5,65.3,44.6,26.1,41.2,33.4,25.8,99,71,34,29.99,29.79,16,5,19,0.00
2014-4-6,65.7,54.3,44.6,46.0,41.1,36.1,80,61,49,29.81,29.67,19,6,19,0.00
2014-4-7,70.7,55.4,42.3,51.8,42.8,36.1,99,66,32,29.75,29.59,15,5,21,0.02
2014-4-8,66.2,50.8,39.7,41.9,34.3,24.2,91,58,25,29.91,29.75,16,7,21,0.00
2014-4-9,85.5,58.8,33.4,48.9,35.8,25.2,74,46,28,29.89,29.45,25,7,27,0.09
2014-4-10,68.2,61.6,58.1,44.3,43.8,42.9,58,52,42,29.45,29.41,14,4,14,0.00
2014-4-11,80.8,62.4,43.5,43.7,33.2,26.1,53,35,20,29.87,29.68,11,3,11,0.00
2014-4-12,86.0,70.1,57.0,66.6,58.2,41.2,90,68,49,29.62,29.32,12,6,12,0.00
2014-4-13,59.7,36.9,30.2,59.4,36.6,30.0,99,99,99,29.76,29.44,23,15,32,2.21
2014-4-14,46.8,34.9,27.3,30.0,24.5,20.9,99,68,43,30.02,29.76,27,10,37,0.00
2014-4-15,56.5,40.5,24.8,36.8,28.8,21.4,95,65,40,30.03,29.68,15,5,19,0.00
2014-4-16,71.2,50.6,37.9,44.1,36.9,33.8,87,62,33,29.91,29.51,36,13,36,1.39
2014-4-23,55.2,54.0,53.1,51.9,51.4,50.5,95,91,84,29.52,29.48,5,4,6,0.25
2014-4-24,67.6,56.0,49.1,57.1,51.5,47.9,99,87,55,29.65,29.43,14,5,20,0.25
2014-4-25,83.8,63.6,43.0,52.7,48.2,42.7,99,64,31,29.69,29.56,20,5,27,0.01
2014-4-26,86.9,69.2,53.2,64.2,55.6,48.5,85,64,43,29.60,29.36,21,6,28,0.15
2014-4-27,74.8,64.5,59.0,68.3,61.1,56.9,99,89,72,29.36,29.11,14,5,16,0.48
2014-4-28,65.1,58.9,51.3,62.3,55.0,48.5,99,87,68,29.22,29.07,17,5,21,0.00
2014-4-29,51.3,46.9,43.2,50.8,46.4,42.0,99,98,87,29.61,29.22,18,7,24,0.08
2014-5-14,76.1,63.8,52.2,47.7,43.8,39.6,81,50,31,30.07,29.96,9,2,16,0.02
2014-5-15,61.2,49.6,40.3,45.8,34.1,31.1,79,57,38,30.14,30.02,11,2,19,0.00
2014-5-16,61.2,48.5,35.1,41.3,36.1,29.6,95,64,41,30.09,29.95,6,1,10,0.00
2014-5-17,74.1,56.8,40.3,47.9,40.8,32.9,99,62,27,30.09,29.94,7,2,11,0.00
2014-5-18,77.9,61.4,43.3,55.9,47.8,40.5,94,63,40,30.09,29.76,11,2,19,0.00
2014-5-19,83.8,71.6,60.1,72.6,65.3,53.1,99,81,66,29.80,29.44,14,3,21,0.00
2014-5-20,96.8,77.2,64.4,77.9,70.8,64.1,99,83,53,29.71,29.55,8,1,15,0.00
2014-5-21,91.2,75.8,63.1,71.3,60.1,51.3,99,61,37,29.94,29.70,5,2,11,0.00
2014-5-22,82.4,65.8,54.7,67.8,59.4,51.6,99,82,53,30.15,29.86,11,1,21,0.65
2014-5-23,81.9,63.1,55.6,64.9,59.4,55.3,99,90,52,30.08,30.00,3,0,8,0.00
2014-5-25,82.8,73.0,66.7,78.5,72.3,66.4,99,98,86,29.86,29.72,5,1,11,0.17
2014-5-26,89.1,72.2,64.4,80.4,70.0,64.1,99,94,66,29.87,29.71,8,2,14,0.07
2014-5-27,72.9,68.0,65.7,72.6,67.7,65.2,99,99,98,29.82,29.77,4,0,6,0.00
2014-5-28,93.4,76.9,63.1,79.1,70.3,62.9,99,83,48,29.86,29.77,4,1,8,0.01
2014-5-29,93.6,77.7,65.3,78.2,72.0,64.8,99,85,58,29.91,29.76,4,1,11,0.00
2014-5-30,95.5,79.9,68.2,78.5,73.7,67.9,99,84,57,29.92,29.78,8,1,14,0.00
2014-5-31,89.6,78.7,67.6,77.8,73.1,67.3,99,85,62,29.93,29.72,8,2,16,0.00
2014-6-1,90.3,74.9,63.5,78.7,71.9,63.2,99,92,67,29.78,29.53,15,3,30,0.99
2014-6-2,90.3,74.0,61.5,73.7,67.0,61.2,99,82,50,29.83,29.66,8,2,15,0.01
2014-6-3,93.2,73.7,62.6,81.6,69.5,62.3,99,88,60,29.92,29.49,11,1,22,0.00
2014-6-4,70.2,69.3,68.5,69.9,69.0,68.3,99,99,99,29.72,29.69,2,0,2,0.00
2014-6-5,89.6,71.5,64.6,78.1,69.4,64.3,99,94,63,29.78,29.64,10,2,14,0.00
2014-6-6,95.5,77.4,64.9,80.2,71.8,64.7,99,85,53,29.81,29.69,9,3,10,0.00
2014-6-7,80.8,69.5,63.1,72.5,67.5,62.9,99,94,69,29.90,29.72,12,3,14,0.32
2014-6-8,75.7,64.4,56.1,70.6,63.1,55.9,99,96,80,29.93,29.78,6,2,7,0.00
2014-6-9,75.0,67.8,60.8,71.6,66.2,60.5,99,95,84,29.80,29.69,9,2,9,0.00
2014-6-10,87.8,71.7,60.6,72.3,64.8,59.0,99,81,54,29.74,29.67,5,2,6,0.00
2014-6-11,87.8,73.8,32.0,99.9,63.7,-99.9,99,72,30,29.71,29.60,15,4,15,490.10
2014-6-12,82.2,71.4,62.2,68.3,57.5,47.3,90,63,40,29.91,29.66,18,5,18,0.00
2014-6-13,82.2,67.3,49.3,58.9,51.9,45.8,99,60,10,29.95,29.70,16,4,17,0.00
2014-6-14,85.5,73.5,60.1,78.7,69.3,56.3,95,87,77,29.75,29.40,29,9,29,0.08
2014-6-15,86.7,74.1,62.4,77.1,67.7,62.2,99,82,54,29.77,29.36,24,6,29,0.54
2014-6-16,91.8,77.1,64.2,86.2,75.3,64.0,99,94,78,29.78,29.47,24,7,32,0.37
2014-6-17,93.6,81.2,68.0,85.4,78.1,67.7,99,91,75,29.67,29.51,21,9,23,0.00
2014-6-18,93.7,83.2,0.0,99.9,69.5,-99.9,99,76,8,29.66,29.57,50,14,50,1180.00
2014-6-19,93.2,81.1,73.2,84.8,77.9,71.8,99,91,66,29.83,29.60,14,4,19,0.00
2014-6-20,95.5,78.7,63.1,84.4,73.6,62.9,99,86,57,29.88,29.69,19,4,21,3.59
2014-6-21,94.6,77.0,-0.4,84.5,73.3,-0.5,99,89,66,29.94,29.67,21,3,28,1.22
2014-6-22,88.0,76.8,69.1,80.8,74.4,68.8,99,92,10,29.76,29.63,100,3,100,0.06
2014-6-23,90.1,76.6,66.4,79.3,70.1,66.1,99,83,51,29.83,29.69,7,2,9,0.00
2014-6-24,89.6,75.9,63.1,74.0,68.2,62.9,99,80,50,29.87,29.81,7,2,8,0.00
2014-6-25,93.9,77.0,63.9,79.6,72.1,63.6,99,86,62,29.88,29.78,9,2,11,0.00
2014-6-26,87.8,75.5,68.4,85.3,74.8,68.1,99,98,88,29.82,29.65,20,3,20,0.13
2014-6-27,83.7,73.6,66.7,83.4,73.3,66.5,99,99,95,29.71,29.55,17,5,21,0.66
2014-6-28,84.6,75.8,67.1,78.2,73.5,66.8,99,93,75,29.73,29.53,17,5,17,0.07
2014-6-29,92.3,77.0,66.2,86.1,75.7,65.9,99,96,79,29.76,29.59,11,4,16,0.06
2014-6-30,85.8,76.4,68.0,85.6,75.3,67.7,99,97,71,29.63,29.48,12,3,12,0.00
2014-7-1,82.8,71.9,63.0,69.0,64.4,59.0,99,79,56,29.86,29.62,27,8,33,0.00
2014-7-2,80.4,64.9,57.7,63.2,59.1,56.4,99,83,53,30.00,29.86,13,4,20,0.00
2014-7-3,87.4,70.1,53.8,69.8,62.4,53.5,99,79,52,30.07,29.99,8,2,8,0.00
2014-7-4,86.9,73.5,61.2,74.9,68.2,60.9,99,85,64,30.10,29.94,16,4,16,0.00
2014-7-5,90.3,75.7,65.5,86.9,74.8,65.2,99,97,86,29.97,29.74,13,4,16,0.01
2014-7-6,100.6,83.9,71.8,91.2,80.4,71.5,99,90,71,29.74,29.63,9,3,11,0.00
2014-7-7,97.0,79.1,69.1,81.5,74.9,68.8,99,88,56,29.71,29.59,5,2,11,0.00
2014-7-8,89.1,76.3,66.4,71.7,67.8,64.1,99,77,50,29.84,29.68,17,5,18,0.00
2014-7-9,71.6,68.4,65.5,67.1,66.0,64.9,98,92,85,29.86,29.84,4,1,5,0.00
2014-7-10,88.5,76.3,32.0,99.9,67.6,69.0,99,41,6,29.88,29.81,115,31,115,7.71
2014-7-11,88.5,76.9,32.0,99.9,69.8,9.2,99,44,2,29.85,29.80,58,19,58,11.57
2014-7-12,90.5,80.3,32.0,99.9,70.7,71.8,99,42,2,29.85,29.79,57,23,57,8.58
2014-7-13,93.9,68.7,32.0,99.9,62.8,9.2,99,40,4,29.89,29.81,115,31,115,6.66
2014-7-14,79.7,65.7,32.0,99.9,62.1,9.2,99,52,2,29.99,29.81,115,21,115,5.21
2014-7-15,81.5,66.9,55.2,61.1,57.8,55.0,99,75,49,30.01,29.89,0,0,0,0.00
2014-7-16,84.0,69.0,55.9,65.8,60.4,55.7,99,77,47,29.94,29.86,0,0,0,0.00
2014-7-17,88.0,70.3,0.0,99.9,63.0,56.2,99,80,30,29.93,29.86,1,0,1,0.00
2014-7-18,80.1,70.3,61.2,71.8,67.1,60.9,99,90,70,29.92,29.82,0,0,0,0.00
2014-7-19,84.7,73.0,60.1,76.2,69.8,59.8,99,90,72,29.86,29.75,0,0,0,0.00
2014-7-20,90.9,77.0,63.5,84.9,75.2,63.2,99,94,81,29.78,29.66,0,0,0,0.00
2014-7-21,99.9,84.4,72.3,92.6,82.1,72.1,99,93,33,29.73,29.66,0,0,0,0.00
2014-7-22,106.2,87.0,75.6,99.9,82.7,75.3,99,88,65,29.99,29.72,0,0,0,0.00
2014-7-23,94.5,78.8,67.3,75.3,70.2,65.5,99,77,50,30.09,29.95,0,0,0,0.00
2014-7-24,88.3,75.0,65.3,76.3,70.2,65.0,99,86,66,30.04,29.70,2,0,2,0.00
2014-7-25,105.1,83.9,71.2,91.7,80.1,69.3,99,89,62,29.79,29.56,1,0,1,0.00
2014-7-26,96.6,81.5,73.2,89.1,80.2,73.0,99,96,74,29.76,29.63,1,0,1,0.00
2014-7-27,88.0,78.0,68.5,77.7,69.3,64.8,99,77,54,30.02,29.76,2,0,2,0.00
2014-7-28,86.4,71.4,60.1,69.0,64.8,59.8,99,81,54,30.10,30.00,1,0,1,0.00
2014-7-29,88.2,72.3,64.2,71.8,64.7,62.4,95,79,51,30.04,29.93,0,0,1,0.00
2014-7-30,90.7,72.2,57.4,69.4,63.9,57.1,99,79,45,29.99,29.92,0,0,1,0.00
2014-7-31,94.8,73.7,58.6,75.1,66.6,58.4,99,81,51,29.95,29.83,1,0,1,0.00
2014-8-1,93.6,76.0,65.3,77.0,70.7,65.0,99,85,55,29.95,29.88,1,0,1,0.00
2014-8-2,95.9,77.6,64.2,80.2,72.5,64.0,99,86,58,30.00,29.90,1,0,1,0.00
2014-8-3,96.6,77.5,63.1,84.7,73.9,62.9,99,90,65,30.05,29.85,2,0,2,0.08
2014-8-4,91.4,77.9,68.5,83.1,76.0,68.3,99,94,75,29.91,29.83,0,0,0,0.00
2014-8-5,94.8,80.5,70.2,84.5,77.2,69.9,99,91,66,29.92,29.82,0,0,1,0.01
2014-8-6,77.2,71.9,68.0,76.9,71.7,67.7,99,99,99,29.85,29.74,1,0,1,0.21
2014-8-7,85.5,72.9,68.2,83.3,72.5,67.9,99,99,92,29.81,29.74,1,0,1,0.01
2014-8-8,90.9,75.2,69.1,81.7,73.6,68.8,99,95,73,29.87,29.80,1,0,1,0.00
2014-8-9,92.5,76.0,68.4,82.9,74.2,68.1,99,94,71,29.89,29.80,0,0,1,0.00
2014-8-10,84.0,73.5,69.6,81.5,73.2,69.4,99,99,91,29.91,29.83,1,0,1,0.03
2014-8-11,86.2,73.7,66.6,71.2,67.0,63.2,99,82,54,29.98,29.89,1,0,1,0.00
2014-8-12,87.3,70.8,57.7,67.0,62.2,57.5,99,77,47,30.00,29.91,1,0,1,0.02
2014-8-13,92.1,71.6,55.9,72.6,64.5,55.7,99,82,50,30.00,29.89,1,0,1,0.00
2014-8-14,102.2,74.7,60.8,95.0,70.0,60.5,99,87,60,29.93,29.81,1,0,1,0.00
2014-8-15,71.6,70.0,68.7,71.3,69.7,68.5,99,99,99,29.82,29.78,0,0,1,0.00
2014-8-23,83.8,76.3,72.1,99.9,68.7,71.8,99,50,30,29.68,29.63,2,1,2,0.34
2014-8-24,100.2,80.5,32.0,99.9,70.3,8.6,99,47,4,29.83,29.67,6,2,6,0.00
2014-8-25,88.0,73.7,64.2,99.9,78.0,63.9,99,44,2,30.00,29.83,12,3,12,17.26
2014-8-26,80.4,76.4,71.1,99.9,78.5,70.8,99,49,2,30.00,29.98,5,2,5,0.00
2014-11-4,63.5,47.9,32.0,99.9,54.9,9.2,99,41,6,30.00,29.91,12,3,12,9.14
2014-11-5,70.0,51.4,39.7,99.9,68.4,38.7,96,41,6,29.99,29.81,12,3,12,10.10
2014-11-6,57.9,42.5,32.0,99.9,51.3,9.2,98,44,2,30.23,30.02,5,2,5,5.29
2014-11-7,63.5,50.5,34.5,99.9,65.1,34.3,95,40,2,30.02,29.59,6,2,6,4.99
2014-11-8,51.1,42.5,32.0,99.9,60.6,9.2,89,41,4,30.05,29.68,12,2,12,4.48
2014-11-9,63.9,49.2,37.4,99.9,60.7,35.6,97,44,2,29.68,29.34,5,2,5,5.51
2014-11-10,60.8,35.9,23.4,99.9,42.6,8.6,99,66,10,29.85,29.23,4,1,4,5.87
2014-11-11,32.2,23.2,18.3,23.1,17.5,11.0,99,79,59,30.27,29.84,14,2,21,0.00
2014-11-12,18.3,17.2,16.3,11.2,10.7,10.0,77,75,73,30.30,30.27,16,10,18,0.00
2014-11-13,31.6,20.3,15.4,99.9,23.4,9.5,91,66,12,30.38,30.29,49,7,49,1.57
2014-11-14,28.6,20.4,8.2,15.2,10.8,6.9,97,68,44,30.30,30.11,8,2,8,0.00
2014-11-15,30.9,25.7,19.0,30.0,21.5,11.8,99,85,57,30.12,29.96,16,3,21,0.00
2014-11-16,26.4,17.2,6.6,18.6,10.9,4.6,98,77,53,30.04,29.87,19,8,26,0.00
2014-11-17,21.9,15.6,9.7,14.7,7.0,3.1,86,69,49,30.10,29.95,24,10,29,0.00
2014-11-18,34.0,20.3,7.3,24.2,12.9,2.9,88,73,53,30.08,29.67,14,5,14,0.00
2014-11-19,34.9,33.4,30.2,28.7,27.6,24.2,84,79,77,29.74,29.67,11,6,14,0.00
2014-11-24,37.6,29.1,21.6,99.9,59.1,10.7,83,41,14,29.97,29.39,86,24,86,4.19
2014-11-25,45.7,35.4,17.8,99.9,56.5,12.7,99,44,6,29.98,29.68,57,19,57,5.90
2014-11-26,38.8,29.8,20.3,99.9,61.9,19.3,99,51,14,30.30,29.69,48,24,48,9.21
2014-11-27,28.4,21.2,16.0,99.9,56.8,11.8,99,43,2,30.36,29.97,45,21,45,0.42
2014-11-28,58.1,40.0,24.4,99.9,58.0,24.2,99,43,6,29.87,29.43,48,22,48,7.70
2014-11-29,70.0,50.3,36.3,99.9,62.7,33.7,99,44,8,29.48,29.33,49,20,49,7.70
2014-11-30,36.3,18.6,15.3,99.9,18.0,3.6,99,57,14,30.39,29.48,49,12,49,7.02
2014-12-1,29.7,17.3,13.3,8.8,4.9,1.4,79,58,36,30.55,30.24,17,5,21,0.00
2014-12-2,47.3,27.3,13.8,19.4,13.4,8.0,86,59,32,30.24,29.81,23,6,23,0.00
2014-12-3,43.3,31.1,23.2,22.5,19.4,17.1,80,63,41,30.21,29.96,8,3,8,0.00